Emison, Indiana
Current Conditions -  °F | °C
As of 4:53 PM on Wednesday 26 Nov 2014 (Local Time) from KLWV Reporting Station
Overcast Overcast  
Wind Chill: 30°   Ceiling: 6000
Heat Index: 36°   Visibility: 8mi
Dew Point: 29°   Wind: 8mph
Humidity: 76%   Direction: 10°N
Pressure: 30.05"   Gusts: NA
Location:  38.8517°N, 87.414°W
Report Text: KLWV 262253Z AUTO 01007KT 8SM OVC060 02/M02 A3005 RMK AO2 SLP180 T00221017
Loading
Personal Weather Stations






























Interactive Weather Map New forecast layout! Learn more

10-Day Weather Forecast

Advertisements
Track Severe Weather on mobile